Time;durP1;ratioP1;P1;durP2;ratioP2;P2;SDS_P1;SDS_P2;PMS_P1;PMS_P2;Temp;Humidity;BMP_temperature;BMP_pressure;BME280_temperature;BME280_humidity;BME280_pressure;Samples;Min_cycle;Max_cycle;Signal;HPM_P1;HPM_P2
2023/04/07 00:02:25;;;;;;;19.00;10.80;;;2.50;99.90;;;;;;5034237;28;20567;-68
2023/04/07 00:04:52;;;;;;;18.33;10.13;;;2.60;99.90;;;;;;5033846;28;20620;-68
2023/04/07 00:07:19;;;;;;;20.87;10.20;;;2.50;99.90;;;;;;5034034;28;20248;-67
2023/04/07 00:09:46;;;;;;;19.10;11.50;;;2.50;99.90;;;;;;5033639;28;20287;-68
2023/04/07 00:12:14;;;;;;;18.70;10.90;;;1.90;99.90;;;;;;5033702;28;20647;-68
2023/04/07 00:14:41;;;;;;;19.23;11.50;;;2.10;99.90;;;;;;5033877;28;20226;-67
2023/04/07 00:17:08;;;;;;;19.83;10.27;;;2.20;99.90;;;;;;5033096;28;20208;-69
2023/04/07 00:19:35;;;;;;;18.10;10.67;;;2.20;99.90;;;;;;5034288;28;20231;-68
2023/04/07 00:22:02;;;;;;;20.20;11.93;;;2.10;99.90;;;;;;5033634;28;20210;-67
2023/04/07 00:24:28;;;;;;;21.07;11.17;;;2.20;99.90;;;;;;5025923;28;20659;-67
2023/04/07 00:26:55;;;;;;;20.77;11.20;;;2.10;99.90;;;;;;5033532;28;20218;-68
2023/04/07 00:29:23;;;;;;;17.90;10.13;;;2.20;99.90;;;;;;5033501;28;20200;-67
2023/04/07 00:31:50;;;;;;;20.27;10.73;;;2.10;99.90;;;;;;5033461;28;20204;-67
2023/04/07 00:34:17;;;;;;;19.43;11.10;;;2.00;99.90;;;;;;5033453;28;20208;-67
2023/04/07 00:36:50;;;;;;;19.93;11.63;;;2.00;99.90;;;;;;5033821;28;20207;-67
2023/04/07 00:39:17;;;;;;;18.97;11.50;;;2.00;99.90;;;;;;5033562;28;20579;-68
2023/04/07 00:41:45;;;;;;;19.43;10.47;;;2.00;99.90;;;;;;5033346;28;20686;-67
2023/04/07 00:44:13;;;;;;;19.30;11.30;;;1.60;99.90;;;;;;5027254;28;20647;-67
2023/04/07 00:46:41;;;;;;;19.33;12.17;;;1.50;99.90;;;;;;5031962;28;20206;-67
2023/04/07 00:49:08;;;;;;;18.93;11.40;;;1.50;99.90;;;;;;5032310;28;20208;-68
2023/04/07 00:51:35;;;;;;;18.03;10.73;;;1.50;99.90;;;;;;5032562;28;20207;-68
2023/04/07 00:54:02;;;;;;;21.90;12.27;;;1.30;99.90;;;;;;5033196;28;20215;-68
2023/04/07 00:56:29;;;;;;;18.50;10.47;;;1.40;99.90;;;;;;5032325;28;20266;-68
2023/04/07 00:58:56;;;;;;;19.33;10.57;;;1.40;99.90;;;;;;5035258;28;20234;-67
2023/04/07 01:01:27;;;;;;;23.53;12.07;;;1.30;99.90;;;;;;5039679;28;20204;-67
2023/04/07 01:04:05;;;;;;;20.30;11.90;;;1.30;99.90;;;;;;5029102;28;20208;-67
2023/04/07 01:06:43;;;;;;;20.67;12.40;;;1.30;99.90;;;;;;5018544;28;20565;-68
2023/04/07 01:09:15;;;;;;;18.90;12.07;;;1.30;99.90;;;;;;5028417;28;20206;-67
2023/04/07 01:11:45;;;;;;;19.77;11.37;;;1.40;99.90;;;;;;5032934;28;20203;-67
2023/04/07 01:14:15;;;;;;;20.87;11.93;;;1.40;99.90;;;;;;5032660;28;20192;-67
2023/04/07 01:16:48;;;;;;;18.37;11.43;;;1.30;99.90;;;;;;5032480;28;20533;-67
2023/04/07 01:19:24;;;;;;;18.27;10.50;;;1.20;99.90;;;;;;5032352;28;20212;-67
2023/04/07 01:21:52;;;;;;;19.17;11.97;;;1.00;99.90;;;;;;5031955;28;20207;-67
2023/04/07 01:24:34;;;;;;;21.33;12.00;;;1.00;99.90;;;;;;5032003;28;20206;-67
2023/04/07 01:27:12;;;;;;;19.33;12.37;;;1.00;99.90;;;;;;5032103;28;20206;-67
2023/04/07 01:29:46;;;;;;;18.93;11.87;;;1.00;99.90;;;;;;5032580;28;20624;-67
2023/04/07 01:32:15;;;;;;;19.77;12.03;;;1.00;99.90;;;;;;5032545;28;20198;-64
2023/04/07 01:34:43;;;;;;;20.90;11.67;;;1.10;99.90;;;;;;5032800;28;20200;-64
2023/04/07 01:37:11;;;;;;;19.40;11.80;;;1.10;99.90;;;;;;5031761;28;20210;-70
2023/04/07 01:39:39;;;;;;;20.97;11.50;;;1.20;99.90;;;;;;5031534;28;20255;-69
2023/04/07 01:42:07;;;;;;;19.80;12.10;;;1.30;99.90;;;;;;5031269;28;20286;-70
2023/04/07 01:44:35;;;;;;;16.77;10.37;;;1.30;99.90;;;;;;5031339;28;20556;-69
2023/04/07 01:47:04;;;;;;;19.60;11.50;;;1.40;99.90;;;;;;5030634;28;20571;-64
2023/04/07 01:49:33;;;;;;;19.47;11.97;;;1.40;99.90;;;;;;5031863;28;20294;-67
2023/04/07 01:52:01;;;;;;;18.77;11.37;;;1.10;99.90;;;;;;5030961;28;20235;-67
2023/04/07 01:54:29;;;;;;;18.37;11.47;;;1.10;99.90;;;;;;5018993;28;20254;-67
2023/04/07 01:56:56;;;;;;;23.93;12.17;;;1.10;99.90;;;;;;5031142;28;20571;-64
2023/04/07 01:59:23;;;;;;;19.73;12.13;;;1.10;99.90;;;;;;5031336;28;20602;-64
2023/04/07 02:01:50;;;;;;;22.70;12.50;;;1.30;99.90;;;;;;5031696;28;20204;-64
2023/04/07 02:04:25;;;;;;;19.77;12.10;;;1.30;99.90;;;;;;5031269;28;20204;-64
2023/04/07 02:06:57;;;;;;;20.60;12.17;;;1.30;99.90;;;;;;5030703;28;20294;-70
2023/04/07 02:09:28;;;;;;;19.73;11.60;;;1.40;99.90;;;;;;5030762;28;20662;-65
2023/04/07 02:11:57;;;;;;;20.93;12.50;;;1.40;99.90;;;;;;5031131;28;20282;-65
2023/04/07 02:14:24;;;;;;;18.57;11.13;;;1.40;99.90;;;;;;5031535;28;20199;-65
2023/04/07 02:16:52;;;;;;;18.50;11.90;;;1.20;99.90;;;;;;5030628;28;20243;-65
2023/04/07 02:19:21;;;;;;;18.80;12.07;;;0.80;99.90;;;;;;5031234;28;20259;-65
2023/04/07 02:21:51;;;;;;;18.63;12.03;;;0.70;99.90;;;;;;5031050;28;20282;-65
2023/04/07 02:24:20;;;;;;;19.40;12.37;;;0.80;99.90;;;;;;5030921;28;20278;-70
2023/04/07 02:26:47;;;;;;;18.93;12.23;;;0.90;99.90;;;;;;5029746;28;20204;-69
2023/04/07 02:29:14;;;;;;;18.43;12.23;;;0.90;99.90;;;;;;5030468;28;20227;-69
2023/04/07 02:31:41;;;;;;;19.90;12.13;;;0.90;99.90;;;;;;5031423;28;20259;-70
2023/04/07 02:34:08;;;;;;;19.00;11.67;;;0.90;99.90;;;;;;5031530;28;20326;-71
2023/04/07 02:36:36;;;;;;;20.70;12.23;;;1.00;99.90;;;;;;5030648;28;20235;-71
2023/04/07 02:39:03;;;;;;;19.93;12.33;;;0.60;99.90;;;;;;5030860;28;20689;-64
2023/04/07 02:41:30;;;;;;;20.50;12.80;;;0.30;99.90;;;;;;5030863;28;20235;-64
2023/04/07 02:43:57;;;;;;;18.93;12.50;;;0.20;99.90;;;;;;5031014;28;20208;-65
2023/04/07 02:46:24;;;;;;;21.03;13.80;;;0.20;99.90;;;;;;5031009;28;20200;-71
2023/04/07 02:48:51;;;;;;;19.67;13.27;;;0.30;99.90;;;;;;5030763;28;20203;-71
2023/04/07 02:51:18;;;;;;;21.57;12.90;;;0.50;99.90;;;;;;5030753;28;20234;-71
2023/04/07 02:53:46;;;;;;;19.53;13.17;;;0.50;99.90;;;;;;5030974;28;20247;-70
2023/04/07 02:56:13;;;;;;;20.20;13.30;;;0.80;99.90;;;;;;5030286;28;20238;-71
2023/04/07 02:58:40;;;;;;;20.40;13.03;;;0.70;99.90;;;;;;5033083;28;20227;-71
2023/04/07 03:01:07;;;;;;;20.57;13.30;;;0.40;99.90;;;;;;5034487;28;20653;-71
2023/04/07 03:03:34;;;;;;;20.40;13.17;;;0.20;99.90;;;;;;5034551;28;20243;-71
2023/04/07 03:06:01;;;;;;;20.67;13.60;;;0.20;99.90;;;;;;5033780;28;20231;-71
2023/04/07 03:08:28;;;;;;;20.30;14.03;;;0.30;99.90;;;;;;5033937;28;20235;-72
2023/04/07 03:10:56;;;;;;;20.50;13.10;;;0.30;99.90;;;;;;5033077;28;20254;-72
2023/04/07 03:13:23;;;;;;;20.57;12.53;;;0.30;99.90;;;;;;5034096;28;20227;-71
2023/04/07 03:15:50;;;;;;;21.33;13.37;;;0.20;99.90;;;;;;5034387;28;20199;-72
2023/04/07 03:18:17;;;;;;;21.07;13.40;;;0.30;99.90;;;;;;5033742;28;20227;-72
2023/04/07 03:20:46;;;;;;;21.73;13.03;;;0.50;99.90;;;;;;5034068;28;20236;-72
2023/04/07 03:23:13;;;;;;;19.53;12.30;;;0.40;99.90;;;;;;5034317;28;20207;-72
2023/04/07 03:25:40;;;;;;;19.77;12.40;;;0.50;99.90;;;;;;5034445;28;20262;-72
2023/04/07 03:28:08;;;;;;;17.87;11.50;;;0.50;99.90;;;;;;5034389;28;20206;-72
2023/04/07 03:30:36;;;;;;;18.70;12.83;;;0.00;99.90;;;;;;5033383;28;20422;-64
2023/04/07 03:33:03;;;;;;;21.57;12.83;;;-0.50;99.90;;;;;;5032224;28;20232;-70
2023/04/07 03:35:30;;;;;;;20.23;12.47;;;-0.20;99.90;;;;;;5033752;28;20664;-70
2023/04/07 03:37:57;;;;;;;20.83;12.97;;;0.00;99.90;;;;;;5033596;28;20220;-69
2023/04/07 03:40:24;;;;;;;20.43;12.50;;;0.00;99.90;;;;;;5033659;28;20227;-69
2023/04/07 03:42:51;;;;;;;22.83;13.77;;;-0.10;99.90;;;;;;5033511;28;20196;-69
2023/04/07 03:45:19;;;;;;;21.53;13.07;;;-0.40;99.90;;;;;;5033780;28;20233;-69
2023/04/07 03:47:46;;;;;;;19.13;12.90;;;-0.20;99.90;;;;;;5032752;28;20200;-69
2023/04/07 03:50:13;;;;;;;21.43;13.57;;;-0.30;99.90;;;;;;5033158;28;20673;-69
2023/04/07 03:52:40;;;;;;;19.47;12.43;;;-0.50;99.90;;;;;;5033459;28;20231;-68
2023/04/07 03:55:08;;;;;;;20.73;12.83;;;-0.60;99.90;;;;;;5033429;28;20258;-68
2023/04/07 03:57:35;;;;;;;23.10;14.67;;;-0.60;99.90;;;;;;5032722;28;20196;-68
2023/04/07 04:00:02;;;;;;;22.20;13.63;;;-0.40;99.90;;;;;;5033514;28;20310;-68
2023/04/07 04:02:31;;;;;;;22.40;14.57;;;-0.40;99.90;;;;;;5025353;28;20247;-67
2023/04/07 04:04:58;;;;;;;22.37;14.67;;;-0.60;99.90;;;;;;5032706;28;20647;-67
2023/04/07 04:07:25;;;;;;;24.40;14.80;;;-0.50;99.90;;;;;;5032950;28;20366;-67
2023/04/07 04:09:52;;;;;;;23.13;14.80;;;-0.50;99.90;;;;;;5032484;28;20255;-67
2023/04/07 04:12:19;;;;;;;22.10;13.77;;;-0.60;99.90;;;;;;5032898;28;20211;-67
2023/04/07 04:14:46;;;;;;;22.50;14.67;;;-0.70;99.90;;;;;;5027671;28;20236;-67
2023/04/07 04:17:13;;;;;;;20.83;13.73;;;-0.80;99.90;;;;;;5030625;28;20659;-67
2023/04/07 04:19:42;;;;;;;22.43;14.47;;;-0.70;99.90;;;;;;5024933;28;20233;-67
2023/04/07 04:22:08;;;;;;;24.17;15.07;;;-0.40;99.90;;;;;;5033351;28;20594;-67
2023/04/07 04:24:35;;;;;;;22.53;14.63;;;-0.30;99.90;;;;;;5032858;28;20243;-67
2023/04/07 04:27:02;;;;;;;23.73;14.97;;;-0.20;99.90;;;;;;5032128;28;20199;-67
2023/04/07 04:29:29;;;;;;;24.73;15.73;;;-0.40;99.90;;;;;;5033023;28;20266;-67
2023/04/07 04:31:56;;;;;;;24.27;16.00;;;-0.50;99.90;;;;;;5032883;28;20200;-67
2023/04/07 04:34:23;;;;;;;23.70;16.27;;;-0.50;99.90;;;;;;5032853;28;20593;-67
2023/04/07 04:36:52;;;;;;;24.97;15.87;;;-0.50;99.90;;;;;;5031414;28;20606;-67
2023/04/07 04:39:18;;;;;;;25.20;16.13;;;-0.50;99.90;;;;;;5031388;28;20694;-67
2023/04/07 04:41:45;;;;;;;23.60;15.43;;;-0.50;99.90;;;;;;5032658;28;20262;-67
2023/04/07 04:44:12;;;;;;;24.90;16.13;;;-0.40;99.90;;;;;;5032517;28;20238;-67
2023/04/07 04:46:39;;;;;;;24.20;15.93;;;-0.40;99.90;;;;;;5031762;28;20207;-67
2023/04/07 04:49:06;;;;;;;24.47;16.00;;;-0.50;99.90;;;;;;5031565;28;20568;-67
2023/04/07 04:51:33;;;;;;;24.50;15.73;;;-0.50;99.90;;;;;;5021241;28;20351;-67
2023/04/07 04:54:02;;;;;;;25.43;16.83;;;-0.40;99.90;;;;;;5027602;28;20195;-67
2023/04/07 04:56:29;;;;;;;23.90;15.73;;;-0.40;99.90;;;;;;5031642;28;20207;-67
2023/04/07 04:58:56;;;;;;;24.23;16.57;;;-0.60;99.90;;;;;;5033089;28;20302;-68
2023/04/07 05:01:23;;;;;;;25.63;16.10;;;-0.50;99.90;;;;;;5026718;28;20730;-67
2023/04/07 05:03:50;;;;;;;22.63;15.87;;;-0.30;99.90;;;;;;5032001;28;20236;-67
2023/04/07 05:06:17;;;;;;;23.03;15.63;;;0.10;99.90;;;;;;5034630;28;20218;-67
2023/04/07 05:08:44;;;;;;;23.90;16.13;;;0.40;99.90;;;;;;5031602;28;20228;-67
2023/04/07 05:11:13;;;;;;;21.70;14.77;;;0.60;99.90;;;;;;5023328;28;20543;-67
2023/04/07 05:13:40;;;;;;;21.90;14.47;;;0.60;99.90;;;;;;5023478;28;20231;-68
2023/04/07 05:16:07;;;;;;;22.00;13.87;;;0.80;99.90;;;;;;5032033;28;20204;-68
2023/04/07 05:18:34;;;;;;;21.23;13.63;;;1.10;99.90;;;;;;5031777;28;20239;-68
2023/04/07 05:21:01;;;;;;;23.33;12.57;;;1.20;99.90;;;;;;5031713;28;20310;-67
2023/04/07 05:23:28;;;;;;;21.73;12.33;;;0.90;99.90;;;;;;5031653;28;20654;-68
2023/04/07 05:25:55;;;;;;;22.77;15.00;;;1.20;99.90;;;;;;5026673;28;20314;-68
2023/04/07 05:28:24;;;;;;;22.30;13.23;;;1.80;99.90;;;;;;5026349;28;20263;-68
2023/04/07 05:30:51;;;;;;;25.90;14.47;;;2.00;99.90;;;;;;5028881;28;20215;-68
2023/04/07 05:33:18;;;;;;;22.43;13.37;;;1.80;99.90;;;;;;5023242;28;20639;-68
2023/04/07 05:35:45;;;;;;;22.57;13.60;;;2.00;99.90;;;;;;5020200;28;20654;-69
2023/04/07 05:38:12;;;;;;;21.43;14.33;;;2.20;99.90;;;;;;5028654;28;20231;-69
2023/04/07 05:40:40;;;;;;;22.33;13.03;;;1.80;99.90;;;;;;5029089;28;20322;-69
2023/04/07 05:43:07;;;;;;;26.13;14.03;;;1.40;99.90;;;;;;5030607;28;20255;-69
2023/04/07 05:45:35;;;;;;;22.40;13.17;;;1.40;99.90;;;;;;5029154;28;20231;-69
2023/04/07 05:48:02;;;;;;;27.27;14.00;;;1.60;99.90;;;;;;5026938;28;20200;-69
2023/04/07 05:50:29;;;;;;;22.07;15.37;;;1.70;99.90;;;;;;5027939;28;20239;-70
2023/04/07 05:52:56;;;;;;;22.80;13.83;;;2.00;99.90;;;;;;5024914;28;20200;-70
2023/04/07 05:55:23;;;;;;;26.13;17.20;;;2.30;99.90;;;;;;5029617;28;20640;-70
2023/04/07 05:57:50;;;;;;;24.23;14.97;;;2.80;99.90;;;;;;5029264;28;20207;-70
2023/04/07 06:00:18;;;;;;;23.93;14.73;;;2.40;99.90;;;;;;5025442;28;20231;-70
2023/04/07 06:02:46;;;;;;;25.03;14.80;;;2.40;99.90;;;;;;5028317;28;20621;-70
2023/04/07 06:05:14;;;;;;;25.13;14.80;;;2.30;99.90;;;;;;5028699;28;20238;-71
2023/04/07 06:07:41;;;;;;;24.77;15.20;;;2.40;99.90;;;;;;5025168;28;20200;-70
2023/04/07 06:10:09;;;;;;;27.83;16.37;;;3.00;99.90;;;;;;5026809;28;20605;-70
2023/04/07 06:12:35;;;;;;;24.10;15.60;;;3.60;99.90;;;;;;5025763;28;20251;-70
2023/04/07 06:15:03;;;;;;;25.43;15.73;;;3.50;99.90;;;;;;5029725;28;20200;-69
2023/04/07 06:17:30;;;;;;;25.70;15.33;;;3.70;99.90;;;;;;5027240;28;20207;-69
2023/04/07 06:19:58;;;;;;;25.67;16.00;;;4.50;99.90;;;;;;5023531;28;20223;-69
2023/04/07 06:22:25;;;;;;;25.23;14.53;;;4.60;99.90;;;;;;5027132;28;20235;-69
2023/04/07 06:24:52;;;;;;;23.57;15.33;;;4.40;99.90;;;;;;5028363;28;20283;-68
2023/04/07 06:27:19;;;;;;;24.27;15.33;;;4.90;99.90;;;;;;5022373;28;20626;-68
2023/04/07 06:29:46;;;;;;;25.53;15.17;;;5.70;99.90;;;;;;5026135;28;20618;-68
2023/04/07 06:32:13;;;;;;;23.77;14.67;;;5.40;99.90;;;;;;5029548;28;20254;-68
2023/04/07 06:34:40;;;;;;;22.63;14.17;;;5.60;99.90;;;;;;5032814;28;20199;-68
2023/04/07 06:37:08;;;;;;;22.77;14.27;;;5.50;99.90;;;;;;5031167;28;20247;-68
2023/04/07 06:39:37;;;;;;;23.83;14.97;;;5.00;99.90;;;;;;5032322;28;20263;-68
2023/04/07 06:42:04;;;;;;;25.30;15.90;;;4.60;99.90;;;;;;5027947;28;20216;-68
2023/04/07 06:44:31;;;;;;;26.03;16.07;;;4.20;99.90;;;;;;5031365;28;20239;-68
2023/04/07 06:46:57;;;;;;;25.93;15.73;;;4.10;99.90;;;;;;5031046;28;20283;-68
2023/04/07 06:49:25;;;;;;;25.57;16.83;;;4.10;99.90;;;;;;5031557;28;20204;-68
2023/04/07 06:51:52;;;;;;;22.93;14.20;;;4.10;99.90;;;;;;5032922;28;20480;-68
2023/04/07 06:54:20;;;;;;;26.27;16.20;;;4.60;99.90;;;;;;5033087;28;20255;-68
2023/04/07 06:56:47;;;;;;;27.83;16.93;;;4.70;99.90;;;;;;5029519;28;20288;-68
2023/04/07 06:59:14;;;;;;;27.70;17.33;;;4.70;99.90;;;;;;5032493;28;20226;-67
2023/04/07 07:01:42;;;;;;;27.27;16.93;;;5.40;99.90;;;;;;5031964;28;20203;-68
2023/04/07 07:04:09;;;;;;;26.53;16.47;;;5.30;99.90;;;;;;5030320;28;20287;-69
2023/04/07 07:06:36;;;;;;;26.13;16.33;;;5.60;99.90;;;;;;5031567;28;20204;-68
2023/04/07 07:09:03;;;;;;;25.07;15.77;;;5.90;99.90;;;;;;5032410;28;20286;-67
2023/04/07 07:11:31;;;;;;;26.57;17.10;;;5.50;99.90;;;;;;5028448;28;20725;-68
2023/04/07 07:13:58;;;;;;;29.57;17.30;;;5.60;99.90;;;;;;5032070;28;20591;-67
2023/04/07 07:16:25;;;;;;;26.17;16.73;;;5.70;99.90;;;;;;5029417;28;20242;-67
2023/04/07 07:18:52;;;;;;;27.33;16.83;;;5.60;99.90;;;;;;5029648;28;20339;-65
2023/04/07 07:21:19;;;;;;;25.93;17.20;;;5.40;99.90;;;;;;5029237;28;20228;-64
2023/04/07 07:23:46;;;;;;;24.77;16.43;;;5.30;99.90;;;;;;5024132;28;20216;-64
2023/04/07 07:26:13;;;;;;;24.10;15.67;;;5.30;99.90;;;;;;5032650;28;20302;-64
2023/04/07 07:28:42;;;;;;;22.73;15.37;;;5.40;99.90;;;;;;5025953;28;20255;-64
2023/04/07 07:31:11;;;;;;;24.07;16.10;;;5.40;99.90;;;;;;5027896;28;20635;-64
2023/04/07 07:33:40;;;;;;;27.83;17.33;;;5.80;99.90;;;;;;5030561;28;20279;-64
2023/04/07 07:36:07;;;;;;;25.60;16.27;;;6.40;99.90;;;;;;5030639;28;20235;-64
2023/04/07 07:38:35;;;;;;;26.93;16.47;;;6.60;99.90;;;;;;5030999;28;20207;-64
2023/04/07 07:41:02;;;;;;;25.73;16.33;;;6.60;99.90;;;;;;5029851;28;20586;-64
2023/04/07 07:43:29;;;;;;;26.07;17.30;;;7.30;99.90;;;;;;5031071;28;20203;-65
2023/04/07 07:45:57;;;;;;;26.47;16.63;;;7.10;99.90;;;;;;5031486;28;20244;-65
2023/04/07 07:48:24;;;;;;;23.90;15.17;;;7.40;99.90;;;;;;5024186;28;20204;-65
2023/04/07 07:50:51;;;;;;;22.93;15.63;;;7.40;99.90;;;;;;5031496;28;20207;-65
2023/04/07 07:53:19;;;;;;;22.53;15.00;;;8.20;99.90;;;;;;5027710;28;20612;-66
2023/04/07 07:55:46;;;;;;;23.10;15.63;;;8.20;99.90;;;;;;5030659;28;20561;-66
2023/04/07 07:58:13;;;;;;;25.47;15.43;;;8.30;99.90;;;;;;5029775;28;20215;-65
2023/04/07 08:00:40;;;;;;;20.60;13.53;;;8.00;99.90;;;;;;5030763;28;20314;-66
2023/04/07 08:03:09;;;;;;;22.20;14.67;;;8.00;99.90;;;;;;5029875;28;20639;-65
2023/04/07 08:05:36;;;;;;;18.57;12.63;;;9.00;99.90;;;;;;5026492;28;20686;-66
2023/04/07 08:08:03;;;;;;;19.60;13.40;;;8.90;1.00;;;;;;5029682;28;20204;-65
2023/04/07 08:10:29;;;;;;;22.17;14.13;;;8.80;1.00;;;;;;5030438;28;20235;-66
2023/04/07 08:12:57;;;;;;;22.10;14.57;;;8.90;1.00;;;;;;5027553;28;20739;-66
2023/04/07 08:15:24;;;;;;;22.23;14.57;;;8.90;99.90;;;;;;5028756;28;20215;-66
2023/04/07 08:17:51;;;;;;;22.47;14.90;;;9.00;99.90;;;;;;5024969;28;20200;-65
2023/04/07 08:20:20;;;;;;;19.43;13.53;;;8.70;1.00;;;;;;5027929;28;20701;-66
2023/04/07 08:22:47;;;;;;;19.33;12.97;;;8.60;1.00;;;;;;5030557;28;20200;-65
2023/04/07 08:25:14;;;;;;;19.97;14.00;;;8.90;1.00;;;;;;5028880;28;20238;-65
2023/04/07 08:27:41;;;;;;;22.63;14.50;;;8.80;1.00;;;;;;5030469;28;20211;-65
2023/04/07 08:30:08;;;;;;;21.17;12.37;;;8.90;1.00;;;;;;5031578;28;20203;-65
2023/04/07 08:32:37;;;;;;;21.70;12.43;;;9.00;1.00;;;;;;5024717;28;20236;-65
2023/04/07 08:35:04;;;;;;;20.80;13.20;;;9.00;99.90;;;;;;5030707;28;20250;-65
2023/04/07 08:37:33;;;;;;;19.53;12.87;;;8.90;99.90;;;;;;5029292;28;20223;-65
2023/04/07 08:40:00;;;;;;;20.77;12.67;;;9.00;99.90;;;;;;5025760;28;20683;-65
2023/04/07 08:42:30;;;;;;;20.73;13.43;;;9.00;99.90;;;;;;5027948;28;20204;-65
2023/04/07 08:44:58;;;;;;;20.13;12.03;;;9.20;99.90;;;;;;5028905;28;20204;-65
2023/04/07 08:47:26;;;;;;;21.87;13.07;;;9.20;1.00;;;;;;5028415;28;20222;-65
2023/04/07 08:49:56;;;;;;;18.23;12.07;;;9.50;1.00;;;;;;5027353;28;20565;-65
2023/04/07 08:52:29;;;;;;;18.80;12.33;;;9.60;1.00;;;;;;5030339;28;20247;-66
2023/04/07 08:55:01;;;;;;;17.60;12.37;;;9.90;1.00;;;;;;5023960;28;20278;-65
2023/04/07 08:57:30;;;;;;;21.13;11.70;;;9.90;1.00;;;;;;5028423;28;20452;-65
2023/04/07 09:00:01;;;;;;;16.90;11.53;;;9.80;99.90;;;;;;5030010;28;20207;-64
2023/04/07 09:02:29;;;;;;;15.77;11.17;;;10.20;99.90;;;;;;5026511;28;20667;-65
2023/04/07 09:04:56;;;;;;;17.80;11.30;;;10.50;99.90;;;;;;5028271;28;20208;-65
2023/04/07 09:07:23;;;;;;;15.97;10.07;;;10.50;26.30;;;;;;5029478;28;20239;-65
2023/04/07 09:09:50;;;;;;;14.20;9.07;;;10.80;1.00;;;;;;5028991;28;20207;-65
2023/04/07 09:12:19;;;;;;;12.80;8.00;;;11.30;1.00;;;;;;5029913;28;20210;-65
2023/04/07 09:14:46;;;;;;;15.23;9.83;;;11.30;1.00;;;;;;5029083;28;20282;-65
2023/04/07 09:17:13;;;;;;;11.67;7.37;;;11.60;1.00;;;;;;5029146;28;20258;-65
2023/04/07 09:19:40;;;;;;;14.80;8.17;;;11.60;1.00;;;;;;5029223;28;20207;-65
2023/04/07 09:22:11;;;;;;;13.87;8.33;;;11.60;1.00;;;;;;5028593;28;20689;-65
2023/04/07 09:24:38;;;;;;;12.27;8.20;;;11.90;99.90;;;;;;5025460;28;20203;-65
2023/04/07 09:27:12;;;;;;;14.40;8.70;;;12.10;99.90;;;;;;5028428;28;20291;-65
2023/04/07 09:29:42;;;;;;;13.37;8.37;;;12.20;99.90;;;;;;5028402;28;20642;-65
2023/04/07 09:32:09;;;;;;;12.40;7.90;;;12.40;99.90;;;;;;5027373;28;20232;-65
2023/04/07 09:34:38;;;;;;;12.17;7.07;;;12.10;67.90;;;;;;5029648;28;20647;-64
2023/04/07 09:37:07;;;;;;;15.07;8.33;;;12.20;1.00;;;;;;5023240;28;20607;-64
2023/04/07 09:39:34;;;;;;;11.67;7.90;;;12.20;1.00;;;;;;5030825;28;20215;-65
2023/04/07 09:42:07;;;;;;;11.60;8.33;;;12.00;1.00;;;;;;5027512;28;20713;-64
2023/04/07 09:44:41;;;;;;;11.53;7.73;;;12.30;1.00;;;;;;5025144;28;20287;-65
2023/04/07 09:47:10;;;;;;;12.20;7.67;;;12.60;1.00;;;;;;5027122;28;20249;-65
2023/04/07 09:49:50;;;;;;;13.77;8.57;;;13.30;1.00;;;;;;5028187;28;20247;-65
2023/04/07 09:52:19;;;;;;;11.60;7.60;;;13.10;1.00;;;;;;5025823;28;20200;-65
2023/04/07 09:54:46;;;;;;;13.77;8.30;;;12.80;1.00;;;;;;5029528;28;20215;-65
2023/04/07 09:57:16;;;;;;;11.20;7.57;;;12.60;1.00;;;;;;5027263;28;20323;-65
2023/04/07 09:59:45;;;;;;;12.00;8.03;;;12.70;1.00;;;;;;5031089;28;20666;-65
2023/04/07 10:02:12;;;;;;;12.47;7.87;;;13.20;1.00;;;;;;5031066;28;20230;-65
2023/04/07 10:04:41;;;;;;;10.63;7.63;;;12.50;99.90;;;;;;5030916;28;20287;-64
2023/04/07 10:07:08;;;;;;;12.90;8.70;;;13.10;99.90;;;;;;5030419;28;20207;-65
2023/04/07 10:09:35;;;;;;;15.23;9.13;;;12.80;99.90;;;;;;5031244;28;20227;-65
2023/04/07 10:12:03;;;;;;;13.00;7.27;;;12.20;99.90;;;;;;5029926;28;20247;-65
2023/04/07 10:14:31;;;;;;;14.67;8.10;;;12.70;99.90;;;;;;5031156;28;20638;-65
2023/04/07 10:17:00;;;;;;;12.37;7.80;;;12.60;99.90;;;;;;5031411;28;20235;-65
2023/04/07 10:19:30;;;;;;;11.30;7.70;;;12.50;99.70;;;;;;5031725;28;20211;-65
2023/04/07 10:21:58;;;;;;;13.83;8.00;;;12.50;47.90;;;;;;5031335;28;20266;-65
2023/04/07 10:24:45;;;;;;;12.87;8.30;;;12.80;56.30;;;;;;5031518;28;20211;-65
2023/04/07 10:27:17;;;;;;;15.13;8.00;;;13.10;99.90;;;;;;5011077;28;20295;-65
2023/04/07 10:29:48;;;;;;;12.53;7.60;;;13.10;62.80;;;;;;5024675;28;20286;-65
2023/04/07 10:32:17;;;;;;;11.70;7.27;;;12.80;5.80;;;;;;5031100;28;20200;-65
2023/04/07 10:35:00;;;;;;;13.97;7.77;;;12.50;1.00;;;;;;5031381;28;20242;-65
2023/04/07 10:37:27;;;;;;;12.90;7.70;;;12.50;1.00;;;;;;5016380;28;20212;-65
2023/04/07 10:40:28;;;;;;;13.07;7.90;;;12.60;1.00;;;;;;5031283;28;20279;-65
2023/04/07 10:42:56;;;;;;;11.70;7.60;;;12.50;1.00;;;;;;5030155;28;20321;-65
2023/04/07 10:45:53;;;;;;;13.50;7.93;;;12.40;1.00;;;;;;5030395;28;20204;-66
2023/04/07 10:48:22;;;;;;;13.97;8.00;;;12.70;1.00;;;;;;5030587;28;20200;-66
2023/04/07 10:51:13;;;;;;;13.70;7.67;;;12.80;1.00;;;;;;5031328;28;20295;-65
2023/04/07 10:54:19;;;;;;;12.67;7.60;;;12.80;1.00;;;;;;5030544;28;20203;-65
2023/04/07 10:57:09;;;;;;;13.43;7.93;;;12.50;1.00;;;;;;5030879;28;20204;-65
2023/04/07 10:59:37;;;;;;;14.33;6.90;;;12.70;1.00;;;;;;5031165;28;20574;-65
2023/04/07 11:02:35;;;;;;;14.30;8.37;;;12.40;1.00;;;;;;5030752;28;20255;-65
2023/04/07 11:05:04;;;;;;;14.20;8.20;;;12.90;1.00;;;;;;5030247;28;20283;-65
2023/04/07 11:07:48;;;;;;;13.10;8.33;;;12.50;1.00;;;;;;5030268;28;20239;-65
2023/04/07 11:10:17;;;;;;;13.83;8.07;;;12.80;1.00;;;;;;5031292;28;20208;-65
2023/04/07 11:12:45;;;;;;;12.90;8.03;;;12.90;1.00;;;;;;5027298;28;20231;-65
2023/04/07 11:15:19;;;;;;;11.97;7.17;;;13.00;1.00;;;;;;5030492;28;20236;-65
2023/04/07 11:17:46;;;;;;;13.13;7.87;;;12.80;1.00;;;;;;5029893;28;20199;-64
2023/04/07 11:20:15;;;;;;;13.63;7.63;;;12.80;1.00;;;;;;5033788;28;20230;-64
2023/04/07 11:22:42;;;;;;;14.07;8.20;;;13.10;1.00;;;;;;5033665;28;20681;-64
2023/04/07 11:25:22;;;;;;;12.00;8.13;;;13.30;1.00;;;;;;5034378;28;20295;-64
2023/04/07 11:27:48;;;;;;;15.00;7.57;;;13.30;1.00;;;;;;5033971;28;20681;-64
2023/04/07 11:30:17;;;;;;;15.50;7.83;;;13.10;1.00;;;;;;5034190;28;20253;-67
2023/04/07 11:32:50;;;;;;;14.07;7.13;;;12.90;1.00;;;;;;5034123;28;20227;-66
2023/04/07 11:35:18;;;;;;;15.03;8.70;;;12.80;1.00;;;;;;5034523;28;20290;-65
2023/04/07 11:37:46;;;;;;;14.53;8.43;;;13.10;1.00;;;;;;5033509;28;20287;-66
2023/04/07 11:40:15;;;;;;;14.20;8.17;;;12.70;99.90;;;;;;5034188;28;20207;-65
2023/04/07 11:42:45;;;;;;;15.20;8.90;;;12.90;1.00;;;;;;5033463;28;20572;-65
2023/04/07 11:45:18;;;;;;;12.30;8.20;;;13.30;99.90;;;;;;5034267;28;20238;-66
2023/04/07 11:47:45;;;;;;;14.83;9.47;;;13.20;99.90;;;;;;5033556;28;20207;-65
2023/04/07 11:50:12;;;;;;;15.47;8.73;;;13.30;99.90;;;;;;5033977;28;20200;-65
2023/04/07 11:52:44;;;;;;;14.03;7.87;;;13.30;99.90;;;;;;5033443;28;20243;-65
2023/04/07 11:55:18;;;;;;;13.70;8.77;;;13.30;99.90;;;;;;5033971;28;20291;-66
2023/04/07 11:57:45;;;;;;;15.10;9.03;;;14.10;99.90;;;;;;5033082;28;20204;-65
2023/04/07 12:00:14;;;;;;;14.47;8.47;;;13.60;99.90;;;;;;5034220;28;20208;-65
2023/04/07 12:02:41;;;;;;;13.90;8.57;;;13.30;99.90;;;;;;5033154;28;20580;-66
2023/04/07 12:05:10;;;;;;;14.97;9.17;;;13.00;99.90;;;;;;5033559;28;20284;-65
2023/04/07 12:07:37;;;;;;;15.63;8.90;;;13.00;99.90;;;;;;5032702;28;20288;-66
2023/04/07 12:13:09;;;;;;;23.57;11.40;;;13.30;99.90;;;;;;5208579;27;20607;-66
2023/04/07 12:15:36;;;;;;;17.70;10.10;;;13.20;99.90;;;;;;5175931;27;20234;-66
2023/04/07 12:18:04;;;;;;;13.87;8.40;;;13.00;99.90;;;;;;5180817;27;20233;-66
2023/04/07 12:20:31;;;;;;;14.17;8.87;;;13.10;99.90;;;;;;5192169;27;20197;-66
2023/04/07 12:22:59;;;;;;;16.07;9.50;;;13.00;99.90;;;;;;5185977;27;20202;-66
2023/04/07 12:25:27;;;;;;;14.60;9.47;;;13.20;99.90;;;;;;5175952;27;20230;-66
2023/04/07 12:27:54;;;;;;;14.60;9.00;;;13.30;99.90;;;;;;5178773;27;20545;-66
2023/04/07 12:30:22;;;;;;;14.90;9.13;;;13.30;99.90;;;;;;5170575;27;20250;-66
2023/04/07 12:32:49;;;;;;;16.27;9.93;;;13.50;99.90;;;;;;5179078;27;20314;-67
2023/04/07 12:35:16;;;;;;;15.00;9.17;;;13.10;6.40;;;;;;5191911;27;20230;-66
2023/04/07 12:37:43;;;;;;;14.10;8.97;;;13.30;29.60;;;;;;5181604;27;20201;-67
2023/04/07 12:40:10;;;;;;;15.07;9.20;;;13.50;58.20;;;;;;5170653;27;20704;-66
2023/04/07 12:42:37;;;;;;;15.27;9.77;;;13.40;42.70;;;;;;5187116;27;20230;-66
2023/04/07 12:45:05;;;;;;;15.53;9.97;;;13.20;1.00;;;;;;5170941;27;20299;-66
2023/04/07 12:47:33;;;;;;;15.67;10.07;;;13.40;1.00;;;;;;5175623;27;20226;-67
2023/04/07 12:50:00;;;;;;;16.23;9.43;;;13.60;2.70;;;;;;5170431;27;20286;-66